sensor_id;sensor_type;location;lat;lon;timestamp;P1;durP1;ratioP1;P2;durP2;ratioP2
59486;SDS011;45298;54.918;73.504;2022-10-31T00:01:37;23.10;;;9.50;;
59486;SDS011;45298;54.918;73.504;2022-10-31T00:04:07;20.73;;;8.60;;
59486;SDS011;45298;54.918;73.504;2022-10-31T00:06:36;34.25;;;13.32;;
59486;SDS011;45298;54.918;73.504;2022-10-31T00:09:04;28.27;;;11.70;;
59486;SDS011;45298;54.918;73.504;2022-10-31T00:11:33;20.65;;;9.07;;
59486;SDS011;45298;54.918;73.504;2022-10-31T00:14:01;57.65;;;22.23;;
59486;SDS011;45298;54.918;73.504;2022-10-31T00:16:30;19.77;;;8.93;;
59486;SDS011;45298;54.918;73.504;2022-10-31T00:19:01;21.45;;;9.40;;
59486;SDS011;45298;54.918;73.504;2022-10-31T00:21:32;36.13;;;14.63;;
59486;SDS011;45298;54.918;73.504;2022-10-31T00:24:01;35.88;;;15.13;;
59486;SDS011;45298;54.918;73.504;2022-10-31T00:26:31;88.30;;;35.15;;
59486;SDS011;45298;54.918;73.504;2022-10-31T00:29:00;54.70;;;21.38;;
59486;SDS011;45298;54.918;73.504;2022-10-31T00:31:28;56.97;;;19.75;;
59486;SDS011;45298;54.918;73.504;2022-10-31T00:33:59;108.60;;;35.63;;
59486;SDS011;45298;54.918;73.504;2022-10-31T00:36:27;35.53;;;14.38;;
59486;SDS011;45298;54.918;73.504;2022-10-31T00:38:57;73.75;;;26.55;;
59486;SDS011;45298;54.918;73.504;2022-10-31T00:41:26;40.50;;;16.35;;
59486;SDS011;45298;54.918;73.504;2022-10-31T00:43:55;58.53;;;21.33;;
59486;SDS011;45298;54.918;73.504;2022-10-31T00:46:24;58.75;;;21.50;;
59486;SDS011;45298;54.918;73.504;2022-10-31T00:48:53;21.17;;;8.63;;
59486;SDS011;45298;54.918;73.504;2022-10-31T00:51:21;53.30;;;20.13;;
59486;SDS011;45298;54.918;73.504;2022-10-31T00:53:50;22.38;;;9.00;;
59486;SDS011;45298;54.918;73.504;2022-10-31T00:56:19;26.90;;;10.18;;
59486;SDS011;45298;54.918;73.504;2022-10-31T00:58:48;26.00;;;10.10;;
59486;SDS011;45298;54.918;73.504;2022-10-31T01:01:16;31.95;;;11.40;;
59486;SDS011;45298;54.918;73.504;2022-10-31T01:03:45;103.75;;;33.55;;
59486;SDS011;45298;54.918;73.504;2022-10-31T01:06:14;29.55;;;11.48;;
59486;SDS011;45298;54.918;73.504;2022-10-31T01:08:43;125.35;;;39.13;;
59486;SDS011;45298;54.918;73.504;2022-10-31T01:11:19;95.82;;;34.67;;
59486;SDS011;45298;54.918;73.504;2022-10-31T01:13:50;68.28;;;26.00;;
59486;SDS011;45298;54.918;73.504;2022-10-31T01:16:22;40.80;;;17.63;;
59486;SDS011;45298;54.918;73.504;2022-10-31T01:18:58;39.40;;;14.40;;
59486;SDS011;45298;54.918;73.504;2022-10-31T01:21:32;87.13;;;30.88;;
59486;SDS011;45298;54.918;73.504;2022-10-31T01:24:01;75.22;;;26.92;;
59486;SDS011;45298;54.918;73.504;2022-10-31T01:26:33;131.60;;;44.92;;
59486;SDS011;45298;54.918;73.504;2022-10-31T01:29:03;114.43;;;37.75;;
59486;SDS011;45298;54.918;73.504;2022-10-31T01:31:35;89.20;;;27.52;;
59486;SDS011;45298;54.918;73.504;2022-10-31T01:34:06;76.85;;;28.63;;
59486;SDS011;45298;54.918;73.504;2022-10-31T01:36:36;61.67;;;24.60;;
59486;SDS011;45298;54.918;73.504;2022-10-31T01:39:10;116.90;;;38.42;;
59486;SDS011;45298;54.918;73.504;2022-10-31T01:41:42;65.88;;;23.08;;
59486;SDS011;45298;54.918;73.504;2022-10-31T01:46:54;165.10;;;56.10;;
59486;SDS011;45298;54.918;73.504;2022-10-31T01:49:29;155.75;;;55.13;;
59486;SDS011;45298;54.918;73.504;2022-10-31T01:51:59;166.60;;;57.85;;
59486;SDS011;45298;54.918;73.504;2022-10-31T01:54:31;113.70;;;40.67;;
59486;SDS011;45298;54.918;73.504;2022-10-31T01:57:03;128.10;;;45.08;;
59486;SDS011;45298;54.918;73.504;2022-10-31T01:59:38;128.32;;;40.58;;
59486;SDS011;45298;54.918;73.504;2022-10-31T02:02:11;105.18;;;36.88;;
59486;SDS011;45298;54.918;73.504;2022-10-31T02:04:41;50.55;;;20.23;;
59486;SDS011;45298;54.918;73.504;2022-10-31T02:07:12;67.93;;;24.88;;
59486;SDS011;45298;54.918;73.504;2022-10-31T02:09:44;47.30;;;19.38;;
59486;SDS011;45298;54.918;73.504;2022-10-31T02:12:16;38.45;;;15.60;;
59486;SDS011;45298;54.918;73.504;2022-10-31T02:14:45;38.72;;;17.13;;
59486;SDS011;45298;54.918;73.504;2022-10-31T02:17:14;36.42;;;16.38;;
59486;SDS011;45298;54.918;73.504;2022-10-31T02:28:39;59.15;;;21.13;;
59486;SDS011;45298;54.918;73.504;2022-10-31T02:31:35;59.70;;;21.17;;
59486;SDS011;45298;54.918;73.504;2022-10-31T02:34:14;135.52;;;43.47;;
59486;SDS011;45298;54.918;73.504;2022-10-31T02:43:02;123.43;;;40.22;;
59486;SDS011;45298;54.918;73.504;2022-10-31T02:48:34;89.80;;;29.23;;
59486;SDS011;45298;54.918;73.504;2022-10-31T02:53:38;109.45;;;33.50;;
59486;SDS011;45298;54.918;73.504;2022-10-31T02:56:18;112.20;;;33.33;;
59486;SDS011;45298;54.918;73.504;2022-10-31T02:58:51;102.65;;;34.20;;
59486;SDS011;45298;54.918;73.504;2022-10-31T03:01:34;100.15;;;33.55;;
59486;SDS011;45298;54.918;73.504;2022-10-31T03:07:16;135.50;;;42.58;;
59486;SDS011;45298;54.918;73.504;2022-10-31T03:10:38;167.45;;;53.05;;
59486;SDS011;45298;54.918;73.504;2022-10-31T03:13:09;306.95;;;102.25;;
59486;SDS011;45298;54.918;73.504;2022-10-31T03:15:51;181.65;;;58.67;;
59486;SDS011;45298;54.918;73.504;2022-10-31T03:23:43;157.60;;;58.75;;
59486;SDS011;45298;54.918;73.504;2022-10-31T03:26:19;209.90;;;80.55;;
59486;SDS011;45298;54.918;73.504;2022-10-31T03:28:51;205.30;;;81.93;;
59486;SDS011;45298;54.918;73.504;2022-10-31T03:31:23;208.93;;;79.07;;
59486;SDS011;45298;54.918;73.504;2022-10-31T03:33:58;115.85;;;39.97;;
59486;SDS011;45298;54.918;73.504;2022-10-31T03:36:33;92.55;;;34.83;;
59486;SDS011;45298;54.918;73.504;2022-10-31T03:39:07;91.10;;;33.00;;
59486;SDS011;45298;54.918;73.504;2022-10-31T03:41:42;64.60;;;19.38;;
59486;SDS011;45298;54.918;73.504;2022-10-31T03:44:17;43.67;;;11.35;;
59486;SDS011;45298;54.918;73.504;2022-10-31T03:47:00;34.75;;;10.27;;
59486;SDS011;45298;54.918;73.504;2022-10-31T03:49:30;36.30;;;12.85;;
59486;SDS011;45298;54.918;73.504;2022-10-31T03:54:40;63.95;;;10.57;;
59486;SDS011;45298;54.918;73.504;2022-10-31T04:02:59;42.53;;;12.15;;
59486;SDS011;45298;54.918;73.504;2022-10-31T04:05:31;41.95;;;12.48;;
59486;SDS011;45298;54.918;73.504;2022-10-31T04:08:01;40.20;;;14.25;;
59486;SDS011;45298;54.918;73.504;2022-10-31T04:10:35;50.78;;;13.13;;
59486;SDS011;45298;54.918;73.504;2022-10-31T04:13:08;46.90;;;12.48;;
59486;SDS011;45298;54.918;73.504;2022-10-31T04:15:47;59.17;;;17.35;;
59486;SDS011;45298;54.918;73.504;2022-10-31T04:18:20;55.78;;;14.40;;
59486;SDS011;45298;54.918;73.504;2022-10-31T04:20:58;99.05;;;28.38;;
59486;SDS011;45298;54.918;73.504;2022-10-31T04:23:29;84.50;;;19.52;;
59486;SDS011;45298;54.918;73.504;2022-10-31T04:26:00;66.30;;;19.77;;
59486;SDS011;45298;54.918;73.504;2022-10-31T04:28:28;80.35;;;22.70;;
59486;SDS011;45298;54.918;73.504;2022-10-31T04:30:57;118.60;;;20.23;;
59486;SDS011;45298;54.918;73.504;2022-10-31T04:33:27;102.25;;;24.60;;
59486;SDS011;45298;54.918;73.504;2022-10-31T04:35:56;100.50;;;29.05;;
59486;SDS011;45298;54.918;73.504;2022-10-31T04:38:25;75.45;;;22.30;;
59486;SDS011;45298;54.918;73.504;2022-10-31T04:40:53;95.18;;;28.40;;
59486;SDS011;45298;54.918;73.504;2022-10-31T04:43:40;107.68;;;22.33;;
59486;SDS011;45298;54.918;73.504;2022-10-31T04:46:10;54.03;;;19.85;;
59486;SDS011;45298;54.918;73.504;2022-10-31T04:48:38;53.03;;;18.42;;
59486;SDS011;45298;54.918;73.504;2022-10-31T04:51:07;47.38;;;17.25;;
59486;SDS011;45298;54.918;73.504;2022-10-31T04:53:36;41.22;;;15.45;;
59486;SDS011;45298;54.918;73.504;2022-10-31T04:56:27;36.85;;;13.45;;
59486;SDS011;45298;54.918;73.504;2022-10-31T04:58:59;100.32;;;15.80;;
59486;SDS011;45298;54.918;73.504;2022-10-31T05:01:37;98.05;;;23.75;;
59486;SDS011;45298;54.918;73.504;2022-10-31T05:04:06;75.57;;;18.88;;
59486;SDS011;45298;54.918;73.504;2022-10-31T05:06:35;61.72;;;20.95;;
59486;SDS011;45298;54.918;73.504;2022-10-31T05:09:04;40.53;;;16.00;;
59486;SDS011;45298;54.918;73.504;2022-10-31T05:11:33;84.13;;;17.75;;
59486;SDS011;45298;54.918;73.504;2022-10-31T05:14:17;63.47;;;17.75;;
59486;SDS011;45298;54.918;73.504;2022-10-31T05:17:04;184.05;;;20.40;;
59486;SDS011;45298;54.918;73.504;2022-10-31T05:19:58;112.38;;;17.23;;
59486;SDS011;45298;54.918;73.504;2022-10-31T05:22:56;115.85;;;25.00;;
59486;SDS011;45298;54.918;73.504;2022-10-31T05:25:27;65.03;;;21.73;;
59486;SDS011;45298;54.918;73.504;2022-10-31T05:27:56;328.30;;;129.90;;
59486;SDS011;45298;54.918;73.504;2022-10-31T05:30:27;83.78;;;26.73;;
59486;SDS011;45298;54.918;73.504;2022-10-31T05:32:58;70.72;;;19.27;;
59486;SDS011;45298;54.918;73.504;2022-10-31T05:35:46;42.25;;;15.73;;
59486;SDS011;45298;54.918;73.504;2022-10-31T05:38:35;103.93;;;17.00;;
59486;SDS011;45298;54.918;73.504;2022-10-31T05:41:11;172.10;;;16.30;;
59486;SDS011;45298;54.918;73.504;2022-10-31T05:43:44;89.00;;;17.38;;
59486;SDS011;45298;54.918;73.504;2022-10-31T05:46:15;109.60;;;30.63;;
59486;SDS011;45298;54.918;73.504;2022-10-31T05:49:02;156.70;;;17.85;;
59486;SDS011;45298;54.918;73.504;2022-10-31T05:51:49;81.82;;;20.20;;
59486;SDS011;45298;54.918;73.504;2022-10-31T05:54:22;103.32;;;17.05;;
59486;SDS011;45298;54.918;73.504;2022-10-31T05:56:51;79.78;;;16.17;;
59486;SDS011;45298;54.918;73.504;2022-10-31T05:59:19;41.42;;;15.02;;
59486;SDS011;45298;54.918;73.504;2022-10-31T06:01:48;53.90;;;16.00;;
59486;SDS011;45298;54.918;73.504;2022-10-31T06:04:45;45.15;;;18.23;;
59486;SDS011;45298;54.918;73.504;2022-10-31T06:07:14;41.03;;;15.13;;
59486;SDS011;45298;54.918;73.504;2022-10-31T06:09:43;42.42;;;14.65;;
59486;SDS011;45298;54.918;73.504;2022-10-31T06:12:12;74.72;;;15.18;;
59486;SDS011;45298;54.918;73.504;2022-10-31T06:15:07;59.60;;;14.40;;
59486;SDS011;45298;54.918;73.504;2022-10-31T06:17:36;53.17;;;19.50;;
59486;SDS011;45298;54.918;73.504;2022-10-31T06:20:19;51.45;;;16.52;;
59486;SDS011;45298;54.918;73.504;2022-10-31T06:22:56;34.70;;;13.23;;
59486;SDS011;45298;54.918;73.504;2022-10-31T06:25:26;50.17;;;12.73;;
59486;SDS011;45298;54.918;73.504;2022-10-31T06:27:55;81.95;;;15.00;;
59486;SDS011;45298;54.918;73.504;2022-10-31T06:30:34;42.90;;;12.70;;
59486;SDS011;45298;54.918;73.504;2022-10-31T06:33:04;50.35;;;12.38;;
59486;SDS011;45298;54.918;73.504;2022-10-31T06:35:37;58.53;;;12.88;;
59486;SDS011;45298;54.918;73.504;2022-10-31T06:38:06;126.47;;;15.18;;
59486;SDS011;45298;54.918;73.504;2022-10-31T06:40:38;105.13;;;15.93;;
59486;SDS011;45298;54.918;73.504;2022-10-31T06:43:17;66.63;;;16.67;;
59486;SDS011;45298;54.918;73.504;2022-10-31T06:45:45;84.00;;;22.65;;
59486;SDS011;45298;54.918;73.504;2022-10-31T06:48:23;86.95;;;19.13;;
59486;SDS011;45298;54.918;73.504;2022-10-31T06:51:10;80.68;;;19.00;;
59486;SDS011;45298;54.918;73.504;2022-10-31T06:53:39;61.53;;;13.93;;
59486;SDS011;45298;54.918;73.504;2022-10-31T06:56:10;50.75;;;13.85;;
59486;SDS011;45298;54.918;73.504;2022-10-31T06:58:49;98.75;;;13.88;;
59486;SDS011;45298;54.918;73.504;2022-10-31T07:01:28;43.53;;;14.20;;
59486;SDS011;45298;54.918;73.504;2022-10-31T07:03:57;49.55;;;14.85;;
59486;SDS011;45298;54.918;73.504;2022-10-31T07:06:30;86.47;;;16.30;;
59486;SDS011;45298;54.918;73.504;2022-10-31T07:08:58;75.13;;;17.77;;
59486;SDS011;45298;54.918;73.504;2022-10-31T07:11:27;92.10;;;20.08;;
59486;SDS011;45298;54.918;73.504;2022-10-31T07:14:00;72.88;;;21.35;;
59486;SDS011;45298;54.918;73.504;2022-10-31T07:16:28;50.35;;;18.92;;
59486;SDS011;45298;54.918;73.504;2022-10-31T07:18:57;46.08;;;17.38;;
59486;SDS011;45298;54.918;73.504;2022-10-31T07:21:26;49.55;;;17.73;;
59486;SDS011;45298;54.918;73.504;2022-10-31T07:23:55;55.88;;;18.50;;
59486;SDS011;45298;54.918;73.504;2022-10-31T07:26:56;39.50;;;16.27;;
59486;SDS011;45298;54.918;73.504;2022-10-31T07:29:31;45.78;;;14.07;;
59486;SDS011;45298;54.918;73.504;2022-10-31T07:32:00;44.00;;;13.10;;
59486;SDS011;45298;54.918;73.504;2022-10-31T07:34:31;35.88;;;13.48;;
59486;SDS011;45298;54.918;73.504;2022-10-31T07:37:34;43.53;;;15.27;;
59486;SDS011;45298;54.918;73.504;2022-10-31T07:40:03;36.85;;;14.25;;
59486;SDS011;45298;54.918;73.504;2022-10-31T07:42:34;41.83;;;14.57;;
59486;SDS011;45298;54.918;73.504;2022-10-31T07:45:05;43.40;;;14.27;;
59486;SDS011;45298;54.918;73.504;2022-10-31T07:47:55;32.15;;;12.95;;
59486;SDS011;45298;54.918;73.504;2022-10-31T07:50:42;35.10;;;13.45;;
59486;SDS011;45298;54.918;73.504;2022-10-31T07:53:34;34.75;;;13.55;;
59486;SDS011;45298;54.918;73.504;2022-10-31T07:56:12;35.20;;;14.13;;
59486;SDS011;45298;54.918;73.504;2022-10-31T07:58:42;35.70;;;15.15;;
59486;SDS011;45298;54.918;73.504;2022-10-31T08:01:10;38.80;;;15.65;;
59486;SDS011;45298;54.918;73.504;2022-10-31T08:03:55;38.67;;;15.98;;
59486;SDS011;45298;54.918;73.504;2022-10-31T08:06:42;37.60;;;15.68;;
59486;SDS011;45298;54.918;73.504;2022-10-31T08:09:19;40.10;;;15.73;;
59486;SDS011;45298;54.918;73.504;2022-10-31T08:11:49;43.35;;;16.38;;
59486;SDS011;45298;54.918;73.504;2022-10-31T08:14:18;46.40;;;17.30;;
59486;SDS011;45298;54.918;73.504;2022-10-31T08:16:46;39.03;;;16.02;;
59486;SDS011;45298;54.918;73.504;2022-10-31T08:19:15;38.78;;;15.88;;
59486;SDS011;45298;54.918;73.504;2022-10-31T08:21:44;36.85;;;15.45;;
59486;SDS011;45298;54.918;73.504;2022-10-31T08:24:12;36.47;;;15.73;;
59486;SDS011;45298;54.918;73.504;2022-10-31T08:26:42;44.42;;;15.57;;
59486;SDS011;45298;54.918;73.504;2022-10-31T08:29:13;36.90;;;15.50;;
59486;SDS011;45298;54.918;73.504;2022-10-31T08:31:42;39.55;;;16.15;;
59486;SDS011;45298;54.918;73.504;2022-10-31T08:34:40;32.83;;;13.85;;
59486;SDS011;45298;54.918;73.504;2022-10-31T08:37:27;37.05;;;15.95;;
59486;SDS011;45298;54.918;73.504;2022-10-31T08:39:56;36.92;;;15.70;;
59486;SDS011;45298;54.918;73.504;2022-10-31T08:42:25;42.72;;;16.77;;
59486;SDS011;45298;54.918;73.504;2022-10-31T08:44:53;41.90;;;17.33;;
59486;SDS011;45298;54.918;73.504;2022-10-31T08:47:22;37.75;;;16.02;;
59486;SDS011;45298;54.918;73.504;2022-10-31T08:49:52;46.55;;;16.08;;
59486;SDS011;45298;54.918;73.504;2022-10-31T08:52:22;37.88;;;15.30;;
59486;SDS011;45298;54.918;73.504;2022-10-31T08:55:13;44.30;;;17.13;;
59486;SDS011;45298;54.918;73.504;2022-10-31T08:58:00;39.78;;;16.38;;
59486;SDS011;45298;54.918;73.504;2022-10-31T09:00:39;37.25;;;15.80;;
59486;SDS011;45298;54.918;73.504;2022-10-31T09:03:21;36.38;;;15.60;;
59486;SDS011;45298;54.918;73.504;2022-10-31T09:06:00;38.17;;;16.45;;
59486;SDS011;45298;54.918;73.504;2022-10-31T09:08:30;39.03;;;16.25;;
59486;SDS011;45298;54.918;73.504;2022-10-31T09:11:01;39.08;;;16.48;;
59486;SDS011;45298;54.918;73.504;2022-10-31T09:13:51;39.78;;;17.23;;
59486;SDS011;45298;54.918;73.504;2022-10-31T09:16:33;43.92;;;17.98;;
59486;SDS011;45298;54.918;73.504;2022-10-31T09:19:01;39.03;;;17.45;;
59486;SDS011;45298;54.918;73.504;2022-10-31T09:21:37;42.13;;;17.20;;
59486;SDS011;45298;54.918;73.504;2022-10-31T09:24:06;36.95;;;16.77;;
59486;SDS011;45298;54.918;73.504;2022-10-31T09:26:34;41.25;;;17.40;;
59486;SDS011;45298;54.918;73.504;2022-10-31T09:29:08;42.17;;;17.00;;
59486;SDS011;45298;54.918;73.504;2022-10-31T09:31:38;35.95;;;15.85;;
59486;SDS011;45298;54.918;73.504;2022-10-31T09:34:25;39.65;;;15.73;;
59486;SDS011;45298;54.918;73.504;2022-10-31T09:37:05;35.53;;;14.55;;
59486;SDS011;45298;54.918;73.504;2022-10-31T09:39:35;36.42;;;15.90;;
59486;SDS011;45298;54.918;73.504;2022-10-31T09:51:28;33.70;;;14.50;;
59486;SDS011;45298;54.918;73.504;2022-10-31T09:54:18;31.30;;;14.93;;
59486;SDS011;45298;54.918;73.504;2022-10-31T09:56:52;43.03;;;14.88;;
59486;SDS011;45298;54.918;73.504;2022-10-31T09:59:30;33.10;;;14.68;;
59486;SDS011;45298;54.918;73.504;2022-10-31T10:02:13;32.53;;;14.50;;
59486;SDS011;45298;54.918;73.504;2022-10-31T10:30:18;31.58;;;13.93;;
59486;SDS011;45298;54.918;73.504;2022-10-31T10:32:58;31.48;;;13.93;;
59486;SDS011;45298;54.918;73.504;2022-10-31T10:35:33;31.60;;;14.02;;
59486;SDS011;45298;54.918;73.504;2022-10-31T10:38:09;30.10;;;13.63;;
59486;SDS011;45298;54.918;73.504;2022-10-31T10:40:41;30.27;;;13.43;;
59486;SDS011;45298;54.918;73.504;2022-10-31T10:43:19;27.65;;;13.48;;
59486;SDS011;45298;54.918;73.504;2022-10-31T10:54:54;25.90;;;12.80;;
59486;SDS011;45298;54.918;73.504;2022-10-31T11:00:34;26.33;;;12.43;;
59486;SDS011;45298;54.918;73.504;2022-10-31T11:03:07;26.90;;;12.95;;
59486;SDS011;45298;54.918;73.504;2022-10-31T11:08:26;34.35;;;16.30;;
59486;SDS011;45298;54.918;73.504;2022-10-31T11:14:06;32.28;;;13.38;;
59486;SDS011;45298;54.918;73.504;2022-10-31T11:16:46;28.98;;;12.63;;
59486;SDS011;45298;54.918;73.504;2022-10-31T11:19:22;36.00;;;15.65;;
59486;SDS011;45298;54.918;73.504;2022-10-31T11:22:05;25.95;;;12.38;;
59486;SDS011;45298;54.918;73.504;2022-10-31T11:24:43;28.15;;;13.00;;
59486;SDS011;45298;54.918;73.504;2022-10-31T11:27:16;33.78;;;14.68;;
59486;SDS011;45298;54.918;73.504;2022-10-31T11:29:49;32.13;;;15.00;;
59486;SDS011;45298;54.918;73.504;2022-10-31T11:32:26;29.88;;;13.73;;
59486;SDS011;45298;54.918;73.504;2022-10-31T11:34:59;32.67;;;14.93;;
59486;SDS011;45298;54.918;73.504;2022-10-31T11:37:39;55.60;;;21.23;;
59486;SDS011;45298;54.918;73.504;2022-10-31T11:40:14;119.05;;;47.83;;
59486;SDS011;45298;54.918;73.504;2022-10-31T11:42:48;32.97;;;15.02;;
59486;SDS011;45298;54.918;73.504;2022-10-31T11:47:52;35.13;;;14.70;;
59486;SDS011;45298;54.918;73.504;2022-10-31T11:53:00;35.42;;;16.27;;
59486;SDS011;45298;54.918;73.504;2022-10-31T11:55:32;46.88;;;19.38;;
59486;SDS011;45298;54.918;73.504;2022-10-31T11:58:04;34.42;;;15.77;;
59486;SDS011;45298;54.918;73.504;2022-10-31T12:00:49;28.25;;;13.57;;
59486;SDS011;45298;54.918;73.504;2022-10-31T12:06:13;28.92;;;13.77;;
59486;SDS011;45298;54.918;73.504;2022-10-31T12:08:47;28.45;;;13.23;;
59486;SDS011;45298;54.918;73.504;2022-10-31T12:11:24;29.73;;;13.73;;
59486;SDS011;45298;54.918;73.504;2022-10-31T12:14:13;27.63;;;12.20;;
59486;SDS011;45298;54.918;73.504;2022-10-31T12:19:44;29.35;;;12.45;;
59486;SDS011;45298;54.918;73.504;2022-10-31T12:25:40;27.20;;;11.45;;
59486;SDS011;45298;54.918;73.504;2022-10-31T12:40:00;30.58;;;13.15;;
59486;SDS011;45298;54.918;73.504;2022-10-31T12:42:46;35.40;;;14.43;;
59486;SDS011;45298;54.918;73.504;2022-10-31T12:59:04;34.15;;;13.82;;
59486;SDS011;45298;54.918;73.504;2022-10-31T13:04:52;34.38;;;14.10;;
59486;SDS011;45298;54.918;73.504;2022-10-31T13:08:10;52.03;;;20.70;;
59486;SDS011;45298;54.918;73.504;2022-10-31T13:10:27;36.25;;;14.85;;
59486;SDS011;45298;54.918;73.504;2022-10-31T13:13:02;37.42;;;15.27;;
59486;SDS011;45298;54.918;73.504;2022-10-31T13:15:50;34.47;;;14.40;;
59486;SDS011;45298;54.918;73.504;2022-10-31T13:18:29;39.83;;;16.90;;
59486;SDS011;45298;54.918;73.504;2022-10-31T13:21:03;37.22;;;15.88;;
59486;SDS011;45298;54.918;73.504;2022-10-31T13:23:39;37.88;;;15.18;;
59486;SDS011;45298;54.918;73.504;2022-10-31T13:26:35;41.25;;;15.63;;
59486;SDS011;45298;54.918;73.504;2022-10-31T13:29:30;40.92;;;16.35;;
59486;SDS011;45298;54.918;73.504;2022-10-31T13:32:04;41.13;;;17.08;;
59486;SDS011;45298;54.918;73.504;2022-10-31T13:40:02;42.70;;;16.13;;
59486;SDS011;45298;54.918;73.504;2022-10-31T13:42:57;42.20;;;16.95;;
59486;SDS011;45298;54.918;73.504;2022-10-31T13:45:48;48.17;;;16.92;;
59486;SDS011;45298;54.918;73.504;2022-10-31T13:48:33;53.30;;;16.40;;
59486;SDS011;45298;54.918;73.504;2022-10-31T13:51:09;45.28;;;15.88;;
59486;SDS011;45298;54.918;73.504;2022-10-31T13:53:40;45.58;;;16.85;;
59486;SDS011;45298;54.918;73.504;2022-10-31T14:01:45;48.42;;;17.38;;
59486;SDS011;45298;54.918;73.504;2022-10-31T14:07:17;134.40;;;17.48;;
59486;SDS011;45298;54.918;73.504;2022-10-31T14:10:00;59.10;;;16.05;;
59486;SDS011;45298;54.918;73.504;2022-10-31T14:12:37;42.45;;;15.50;;
59486;SDS011;45298;54.918;73.504;2022-10-31T14:15:15;39.00;;;15.57;;
59486;SDS011;45298;54.918;73.504;2022-10-31T14:17:57;44.03;;;15.82;;
59486;SDS011;45298;54.918;73.504;2022-10-31T14:20:34;51.10;;;16.00;;
59486;SDS011;45298;54.918;73.504;2022-10-31T14:29:00;46.70;;;14.88;;
59486;SDS011;45298;54.918;73.504;2022-10-31T14:31:55;43.10;;;15.68;;
59486;SDS011;45298;54.918;73.504;2022-10-31T14:34:32;46.60;;;15.60;;
59486;SDS011;45298;54.918;73.504;2022-10-31T14:40:05;49.47;;;13.35;;
59486;SDS011;45298;54.918;73.504;2022-10-31T14:48:48;37.42;;;14.68;;
59486;SDS011;45298;54.918;73.504;2022-10-31T14:51:31;42.22;;;12.90;;
59486;SDS011;45298;54.918;73.504;2022-10-31T14:54:07;38.38;;;14.18;;
59486;SDS011;45298;54.918;73.504;2022-10-31T14:59:48;36.53;;;14.48;;
59486;SDS011;45298;54.918;73.504;2022-10-31T15:02:28;42.22;;;14.13;;
59486;SDS011;45298;54.918;73.504;2022-10-31T15:05:07;40.03;;;15.32;;
59486;SDS011;45298;54.918;73.504;2022-10-31T15:07:47;51.78;;;20.75;;
59486;SDS011;45298;54.918;73.504;2022-10-31T15:10:26;40.47;;;16.65;;
59486;SDS011;45298;54.918;73.504;2022-10-31T15:13:19;117.82;;;44.63;;
59486;SDS011;45298;54.918;73.504;2022-10-31T15:15:49;78.38;;;26.17;;
59486;SDS011;45298;54.918;73.504;2022-10-31T15:18:25;45.63;;;16.73;;
59486;SDS011;45298;54.918;73.504;2022-10-31T15:20:56;49.05;;;17.17;;
59486;SDS011;45298;54.918;73.504;2022-10-31T15:23:28;52.10;;;19.23;;
59486;SDS011;45298;54.918;73.504;2022-10-31T15:26:04;47.50;;;17.73;;
59486;SDS011;45298;54.918;73.504;2022-10-31T15:28:33;46.42;;;16.50;;
59486;SDS011;45298;54.918;73.504;2022-10-31T15:31:02;52.28;;;19.23;;
59486;SDS011;45298;54.918;73.504;2022-10-31T15:33:31;73.72;;;26.38;;
59486;SDS011;45298;54.918;73.504;2022-10-31T15:36:24;42.15;;;16.20;;
59486;SDS011;45298;54.918;73.504;2022-10-31T15:38:56;42.53;;;15.98;;
59486;SDS011;45298;54.918;73.504;2022-10-31T15:44:13;41.53;;;16.92;;
59486;SDS011;45298;54.918;73.504;2022-10-31T15:47:06;42.22;;;15.13;;
59486;SDS011;45298;54.918;73.504;2022-10-31T15:49:52;42.63;;;16.15;;
59486;SDS011;45298;54.918;73.504;2022-10-31T15:57:57;46.95;;;17.55;;
59486;SDS011;45298;54.918;73.504;2022-10-31T16:00:31;39.90;;;16.13;;
59486;SDS011;45298;54.918;73.504;2022-10-31T16:05:36;40.53;;;16.27;;
59486;SDS011;45298;54.918;73.504;2022-10-31T16:10:52;44.47;;;15.68;;
59486;SDS011;45298;54.918;73.504;2022-10-31T16:13:40;39.55;;;15.68;;
59486;SDS011;45298;54.918;73.504;2022-10-31T16:16:21;44.03;;;16.13;;
59486;SDS011;45298;54.918;73.504;2022-10-31T16:19:05;38.20;;;14.77;;
59486;SDS011;45298;54.918;73.504;2022-10-31T16:22:06;41.30;;;15.18;;
59486;SDS011;45298;54.918;73.504;2022-10-31T16:24:45;44.47;;;16.02;;
59486;SDS011;45298;54.918;73.504;2022-10-31T16:27:23;45.72;;;17.13;;
59486;SDS011;45298;54.918;73.504;2022-10-31T16:29:57;42.42;;;15.48;;
59486;SDS011;45298;54.918;73.504;2022-10-31T16:32:35;51.42;;;17.33;;
59486;SDS011;45298;54.918;73.504;2022-10-31T16:37:55;51.78;;;16.90;;
59486;SDS011;45298;54.918;73.504;2022-10-31T16:40:24;47.42;;;16.30;;
59486;SDS011;45298;54.918;73.504;2022-10-31T16:42:53;50.75;;;16.65;;
59486;SDS011;45298;54.918;73.504;2022-10-31T16:45:30;45.50;;;16.17;;
59486;SDS011;45298;54.918;73.504;2022-10-31T16:48:04;40.80;;;15.32;;
59486;SDS011;45298;54.918;73.504;2022-10-31T16:50:38;42.15;;;16.50;;
59486;SDS011;45298;54.918;73.504;2022-10-31T16:53:07;41.22;;;15.43;;
59486;SDS011;45298;54.918;73.504;2022-10-31T16:55:42;44.40;;;16.30;;
59486;SDS011;45298;54.918;73.504;2022-10-31T16:58:26;40.67;;;16.13;;
59486;SDS011;45298;54.918;73.504;2022-10-31T17:00:59;40.55;;;15.18;;
59486;SDS011;45298;54.918;73.504;2022-10-31T17:03:29;39.58;;;15.30;;
59486;SDS011;45298;54.918;73.504;2022-10-31T17:05:58;39.13;;;15.70;;
59486;SDS011;45298;54.918;73.504;2022-10-31T17:08:27;41.67;;;15.95;;
59486;SDS011;45298;54.918;73.504;2022-10-31T17:10:58;44.42;;;16.45;;
59486;SDS011;45298;54.918;73.504;2022-10-31T17:13:30;47.13;;;17.00;;
59486;SDS011;45298;54.918;73.504;2022-10-31T17:16:01;54.10;;;21.27;;
59486;SDS011;45298;54.918;73.504;2022-10-31T17:18:31;42.95;;;16.38;;
59486;SDS011;45298;54.918;73.504;2022-10-31T17:21:00;66.68;;;23.75;;
59486;SDS011;45298;54.918;73.504;2022-10-31T17:23:31;58.40;;;21.15;;
59486;SDS011;45298;54.918;73.504;2022-10-31T17:26:00;44.90;;;18.33;;
59486;SDS011;45298;54.918;73.504;2022-10-31T17:28:28;42.97;;;17.58;;
59486;SDS011;45298;54.918;73.504;2022-10-31T17:30:57;46.60;;;17.38;;
59486;SDS011;45298;54.918;73.504;2022-10-31T17:33:26;43.88;;;17.48;;
59486;SDS011;45298;54.918;73.504;2022-10-31T17:35:55;41.85;;;17.88;;
59486;SDS011;45298;54.918;73.504;2022-10-31T17:38:23;51.38;;;20.20;;
59486;SDS011;45298;54.918;73.504;2022-10-31T17:40:52;79.85;;;28.45;;
59486;SDS011;45298;54.918;73.504;2022-10-31T17:43:21;64.82;;;24.02;;
59486;SDS011;45298;54.918;73.504;2022-10-31T17:45:53;52.53;;;19.88;;
59486;SDS011;45298;54.918;73.504;2022-10-31T17:48:22;40.08;;;16.33;;
59486;SDS011;45298;54.918;73.504;2022-10-31T17:50:50;58.97;;;21.98;;
59486;SDS011;45298;54.918;73.504;2022-10-31T17:53:19;42.78;;;16.02;;
59486;SDS011;45298;54.918;73.504;2022-10-31T17:55:48;53.40;;;20.60;;
59486;SDS011;45298;54.918;73.504;2022-10-31T17:58:16;46.75;;;17.42;;